createdAt,value
2018-04-11T00:01:13.637Z,32.82
2018-04-11T00:03:41.898Z,31.32
2018-04-11T00:06:10.189Z,27.16
2018-04-11T00:08:38.453Z,26.56
2018-04-11T00:11:06.758Z,26.84
2018-04-11T00:13:35.049Z,25.20
2018-04-11T00:16:03.330Z,26.04
2018-04-11T00:18:31.634Z,27.40
2018-04-11T00:21:01.154Z,25.60
2018-04-11T00:23:30.659Z,26.82
2018-04-11T00:25:59.911Z,26.94
2018-04-11T00:28:28.170Z,26.58
2018-04-11T00:30:56.454Z,30.06
2018-04-11T00:33:25.682Z,30.60
2018-04-11T00:35:53.958Z,27.78
2018-04-11T00:38:22.221Z,31.40
2018-04-11T00:40:50.527Z,29.20
2018-04-11T00:43:19.826Z,27.18
2018-04-11T00:45:48.087Z,29.88
2018-04-11T00:48:16.354Z,29.30
2018-04-11T00:50:44.658Z,28.08
2018-04-11T00:53:24.697Z,27.20
2018-04-11T00:55:52.990Z,29.52
2018-04-11T00:58:21.255Z,28.48
2018-04-11T01:00:49.578Z,28.82
2018-04-11T01:03:18.773Z,24.32
2018-04-11T01:05:47.044Z,27.28
2018-04-11T01:08:15.329Z,24.72
2018-04-11T01:10:43.599Z,25.70
2018-04-11T01:13:12.463Z,26.14
2018-04-11T01:15:40.717Z,31.48
2018-04-11T01:18:08.997Z,30.98
2018-04-11T01:20:37.295Z,25.52
2018-04-11T01:23:05.573Z,28.78
2018-04-11T01:25:33.851Z,26.70
2018-04-11T01:28:02.159Z,27.98
2018-04-11T01:30:31.628Z,28.84
2018-04-11T01:33:00.441Z,33.12
2018-04-11T01:35:29.170Z,31.58
2018-04-11T01:37:57.434Z,33.38
2018-04-11T01:40:25.729Z,34.92
2018-04-11T01:42:54.945Z,33.98
2018-04-11T01:45:23.242Z,32.94
2018-04-11T01:47:51.509Z,31.62
2018-04-11T01:50:19.811Z,34.54
2018-04-11T01:52:47.313Z,35.60
2018-04-11T01:55:15.589Z,34.00
2018-04-11T01:57:43.901Z,30.50
2018-04-11T02:00:12.169Z,34.84
2018-04-11T02:02:40.463Z,31.64
2018-04-11T02:05:08.725Z,34.82
2018-04-11T02:07:37.000Z,38.70
2018-04-11T02:10:05.289Z,31.24
2018-04-11T02:12:33.942Z,32.80
2018-04-11T02:15:02.238Z,33.24
2018-04-11T02:17:32.677Z,34.32
2018-04-11T02:20:00.943Z,34.92
2018-04-11T02:22:31.922Z,40.06
2018-04-11T02:25:01.122Z,40.58
2018-04-11T02:27:30.458Z,33.72
2018-04-11T02:29:58.754Z,30.20
2018-04-11T02:32:27.959Z,30.88
2018-04-11T02:34:56.233Z,30.96
2018-04-11T02:37:25.397Z,29.10
2018-04-11T02:39:53.681Z,33.10
2018-04-11T02:42:21.954Z,33.48
2018-04-11T02:44:50.253Z,34.94
2018-04-11T02:47:18.536Z,33.58
2018-04-11T02:49:46.826Z,35.02
2018-04-11T02:52:15.142Z,33.38
2018-04-11T02:54:43.397Z,29.52
2018-04-11T02:57:11.662Z,28.88
2018-04-11T02:59:39.947Z,26.56
2018-04-11T03:02:08.213Z,34.92
2018-04-11T03:04:36.505Z,30.54
2018-04-11T03:07:04.783Z,25.54
2018-04-11T03:09:33.079Z,28.88
2018-04-11T03:12:07.437Z,28.02
2018-04-11T03:14:35.719Z,29.64
2018-04-11T03:17:03.997Z,29.50
2018-04-11T03:19:32.330Z,31.18
2018-04-11T03:22:02.057Z,28.02
2018-04-11T03:24:31.376Z,28.64
2018-04-11T03:27:01.125Z,27.58
2018-04-11T03:29:30.582Z,25.50
2018-04-11T03:31:58.850Z,20.64
2018-04-11T03:34:27.121Z,23.92
2018-04-11T03:36:55.409Z,19.78
2018-04-11T03:39:23.668Z,20.42
2018-04-11T03:41:51.958Z,22.52
2018-04-11T03:44:20.222Z,19.76
2018-04-11T03:46:48.521Z,23.10
2018-04-11T03:49:16.794Z,20.42
2018-04-11T03:51:45.094Z,21.66
2018-04-11T03:54:13.391Z,25.02
2018-04-11T03:56:41.687Z,21.94
2018-04-11T03:59:11.134Z,19.30
2018-04-11T04:01:39.894Z,20.56
2018-04-11T04:04:08.169Z,19.70
2018-04-11T04:06:36.523Z,14.98
2018-04-11T04:09:05.498Z,16.50
2018-04-11T04:11:33.756Z,16.56
2018-04-11T04:14:17.237Z,15.48
2018-04-11T04:16:57.377Z,14.54
2018-04-11T04:19:37.521Z,16.22
2018-04-11T04:22:05.778Z,14.56
2018-04-11T04:24:34.101Z,14.12
2018-04-11T04:27:02.371Z,13.28
2018-04-11T04:29:31.438Z,17.46
2018-04-11T04:32:00.762Z,16.88
2018-04-11T04:34:29.063Z,13.86
2018-04-11T04:36:57.339Z,21.06
2018-04-11T04:39:25.622Z,14.46
2018-04-11T04:41:53.882Z,15.66
2018-04-11T04:44:22.184Z,15.28
2018-04-11T04:46:49.709Z,16.88
2018-04-11T04:49:18.002Z,16.12
2018-04-11T04:51:45.501Z,16.32
2018-04-11T04:54:13.793Z,16.56
2018-04-11T04:56:42.090Z,15.24
2018-04-11T04:59:10.348Z,15.94
2018-04-11T05:01:38.639Z,18.36
2018-04-11T05:04:06.929Z,20.42
2018-04-11T05:06:35.208Z,15.92
2018-04-11T05:09:03.520Z,22.34
2018-04-11T05:11:31.802Z,17.26
2018-04-11T05:14:01.262Z,17.86
2018-04-11T05:16:29.539Z,19.86
2018-04-11T05:18:57.801Z,15.26
2018-04-11T05:21:26.093Z,16.68
2018-04-11T05:23:54.361Z,21.62
2018-04-11T05:26:22.653Z,14.78
2018-04-11T05:28:50.141Z,17.56
2018-04-11T05:31:18.426Z,16.18
2018-04-11T05:33:46.695Z,18.50
2018-04-11T05:36:14.996Z,17.34
2018-04-11T05:38:43.254Z,14.02
2018-04-11T05:41:11.534Z,14.34
2018-04-11T05:43:39.793Z,17.46
2018-04-11T05:46:08.090Z,14.36
2018-04-11T05:48:36.353Z,15.76
2018-04-11T05:51:04.655Z,17.42
2018-04-11T05:53:33.918Z,17.62
2018-04-11T05:56:02.215Z,16.78
2018-04-11T05:58:31.174Z,17.30
2018-04-11T06:01:00.324Z,15.96
2018-04-11T06:03:29.609Z,16.72
2018-04-11T06:05:57.938Z,18.60
2018-04-11T06:08:26.175Z,18.40
2018-04-11T06:10:54.462Z,18.54
2018-04-11T06:13:22.746Z,18.12
2018-04-11T06:15:51.001Z,17.06
2018-04-11T06:18:19.300Z,17.52
2018-04-11T06:20:47.594Z,17.16
2018-04-11T06:23:15.865Z,15.90
2018-04-11T06:25:44.158Z,17.46
2018-04-11T06:28:12.421Z,20.80
2018-04-11T06:30:40.752Z,19.74
2018-04-11T06:33:09.037Z,17.80
2018-04-11T06:35:37.307Z,19.78
2018-04-11T06:38:05.605Z,16.52
2018-04-11T06:40:33.890Z,18.28
2018-04-11T06:43:03.201Z,19.20
2018-04-11T06:45:31.497Z,19.60
2018-04-11T06:48:00.461Z,20.40
2018-04-11T06:50:28.758Z,19.94
2018-04-11T06:52:57.026Z,22.90
2018-04-11T06:55:25.289Z,19.62
2018-04-11T06:57:55.577Z,20.14
2018-04-11T07:00:23.841Z,21.74
2018-04-11T07:02:52.131Z,22.16
2018-04-11T07:05:20.406Z,17.82
2018-04-11T07:07:48.709Z,21.18
2018-04-11T07:10:17.005Z,17.52
2018-04-11T07:12:45.317Z,21.02
2018-04-11T07:15:13.578Z,18.98
2018-04-11T07:17:42.760Z,22.62
2018-04-11T07:20:12.018Z,18.62
2018-04-11T07:22:40.836Z,22.42
2018-04-11T07:25:09.125Z,22.04
2018-04-11T07:27:37.386Z,21.18
2018-04-11T07:30:05.687Z,20.54
2018-04-11T07:32:33.949Z,20.02
2018-04-11T07:35:02.219Z,20.98
2018-04-11T07:37:30.531Z,21.50
2018-04-11T07:40:01.190Z,22.84
2018-04-11T07:42:30.222Z,23.02
2018-04-11T07:44:58.548Z,28.56
2018-04-11T07:47:26.821Z,26.94
2018-04-11T07:49:55.084Z,30.82
2018-04-11T07:52:23.387Z,34.16
2018-04-11T07:54:51.645Z,40.34
2018-04-11T07:57:19.940Z,52.64
2018-04-11T07:59:48.210Z,49.58
2018-04-11T08:02:16.507Z,55.92
2018-04-11T08:04:44.778Z,55.94
2018-04-11T08:07:13.091Z,55.04
2018-04-11T08:09:41.358Z,62.88
2018-04-11T08:12:09.634Z,50.50
2018-04-11T08:14:37.937Z,48.50
2018-04-11T08:17:06.202Z,52.78
2018-04-11T08:19:34.489Z,51.38
2018-04-11T08:22:02.791Z,47.92
2018-04-11T08:24:31.821Z,42.78
2018-04-11T08:27:01.270Z,45.16
2018-04-11T08:29:29.565Z,47.98
2018-04-11T08:31:57.861Z,47.82
2018-04-11T08:34:26.131Z,47.62
2018-04-11T08:36:54.427Z,50.42
2018-04-11T08:39:22.720Z,43.34
2018-04-11T08:41:50.995Z,47.70
2018-04-11T08:44:19.293Z,44.90
2018-04-11T08:46:47.557Z,56.92
2018-04-11T08:49:15.858Z,47.88
2018-04-11T08:51:44.118Z,46.86
2018-04-11T08:54:12.410Z,55.00
2018-04-11T08:56:40.669Z,53.90
2018-04-11T08:59:08.978Z,58.56
2018-04-11T09:01:37.267Z,54.74
2018-04-11T09:04:05.539Z,61.04
2018-04-11T09:06:33.838Z,56.76
2018-04-11T09:09:03.336Z,57.88
2018-04-11T09:11:32.589Z,57.62
2018-04-11T09:14:03.325Z,59.76
2018-04-11T09:16:32.510Z,57.16
2018-04-11T09:19:01.912Z,58.46
2018-04-11T09:21:31.357Z,58.28
2018-04-11T09:24:01.288Z,71.02
2018-04-11T09:26:29.603Z,70.24
2018-04-11T09:28:57.875Z,65.94
2018-04-11T09:31:26.134Z,69.68
2018-04-11T09:33:54.424Z,75.88
2018-04-11T09:36:22.685Z,68.28
2018-04-11T09:38:50.973Z,75.34
2018-04-11T09:41:19.231Z,71.84
2018-04-11T09:43:47.525Z,79.10
2018-04-11T09:46:15.784Z,77.40
2018-04-11T09:48:44.081Z,69.42
2018-04-11T09:51:12.336Z,87.60
2018-04-11T09:53:40.646Z,82.64
2018-04-11T09:56:08.928Z,77.50
2018-04-11T09:58:37.197Z,84.22
2018-04-11T10:01:05.488Z,83.90
2018-04-11T10:03:33.761Z,91.80
2018-04-11T10:06:02.064Z,89.48
2018-04-11T10:08:32.354Z,90.68
2018-04-11T10:11:01.450Z,100.50
2018-04-11T10:13:31.938Z,93.68
2018-04-11T10:16:02.401Z,83.80
2018-04-11T10:18:32.853Z,97.48
2018-04-11T10:21:02.910Z,84.50
2018-04-11T10:23:33.062Z,87.72
2018-04-11T10:26:03.309Z,86.32
2018-04-11T10:28:32.233Z,93.30
2018-04-11T10:31:00.913Z,93.22
2018-04-11T10:33:30.412Z,87.88
2018-04-11T10:35:58.713Z,97.84
2018-04-11T10:38:26.985Z,83.26
2018-04-11T10:40:55.241Z,100.70
2018-04-11T10:43:24.533Z,90.78
2018-04-11T10:45:52.796Z,93.82
2018-04-11T10:48:21.088Z,97.42
2018-04-11T10:50:49.350Z,92.38
2018-04-11T10:53:18.665Z,109.74
2018-04-11T10:55:46.939Z,104.98
2018-04-11T10:58:15.257Z,104.08
2018-04-11T11:00:43.528Z,102.78
2018-04-11T11:03:12.375Z,101.46
2018-04-11T11:05:40.646Z,104.66
2018-04-11T11:08:08.947Z,98.32
2018-04-11T11:10:37.208Z,115.68
2018-04-11T11:13:05.526Z,105.56
2018-04-11T11:15:33.811Z,107.70
2018-04-11T11:18:02.939Z,100.16
2018-04-11T11:20:33.125Z,97.62
2018-04-11T11:23:02.948Z,107.18
2018-04-11T11:25:33.416Z,109.62
2018-04-11T11:28:03.262Z,98.34
2018-04-11T11:30:31.994Z,112.66
2018-04-11T11:33:02.056Z,104.68
2018-04-11T11:35:32.099Z,112.60
2018-04-11T11:38:00.409Z,106.34
2018-04-11T11:40:28.716Z,119.40
2018-04-11T11:42:59.005Z,107.06
2018-04-11T11:45:27.282Z,112.56
2018-04-11T11:47:55.582Z,117.24
2018-04-11T11:50:23.854Z,116.02
2018-04-11T11:52:52.151Z,116.00
2018-04-11T11:55:20.415Z,108.56
2018-04-11T11:57:48.728Z,108.70
2018-04-11T12:00:17.002Z,105.98
2018-04-11T12:02:45.302Z,108.98
2018-04-11T12:05:13.581Z,113.92
2018-04-11T12:07:41.899Z,103.48
2018-04-11T12:10:10.200Z,114.28
2018-04-11T12:12:38.464Z,119.44
2018-04-11T12:15:06.753Z,118.66
2018-04-11T12:17:35.030Z,112.22
2018-04-11T12:20:04.529Z,104.28
2018-04-11T12:22:34.185Z,81.86
2018-04-11T12:25:03.686Z,87.14
2018-04-11T12:27:32.003Z,89.14
2018-04-11T12:30:01.161Z,94.92
2018-04-11T12:32:30.146Z,79.42
2018-04-11T12:34:58.413Z,82.56
2018-04-11T12:37:26.733Z,81.74
2018-04-11T12:39:55.018Z,75.12
2018-04-11T12:42:23.294Z,74.58
2018-04-11T12:44:51.598Z,69.30
2018-04-11T12:47:19.865Z,66.16
2018-04-11T12:49:48.174Z,78.92
2018-04-11T12:52:16.484Z,76.98
2018-04-11T12:54:44.785Z,69.52
2018-04-11T12:57:13.044Z,69.74
2018-04-11T12:59:41.343Z,65.38
2018-04-11T13:02:10.542Z,64.42
2018-04-11T13:04:38.851Z,69.38
2018-04-11T13:07:07.110Z,70.18
2018-04-11T13:09:35.372Z,54.12
2018-04-11T13:12:04.601Z,50.02
2018-04-11T13:14:32.870Z,49.28
2018-04-11T13:17:03.306Z,50.18
2018-04-11T13:19:32.475Z,41.70
2018-04-11T13:22:02.338Z,51.64
2018-04-11T13:24:30.943Z,46.20
2018-04-11T13:27:00.475Z,41.90
2018-04-11T13:29:28.769Z,42.26
2018-04-11T13:31:57.063Z,42.96
2018-04-11T13:34:25.366Z,46.06
2018-04-11T13:36:53.660Z,42.58
2018-04-11T13:39:21.929Z,43.26
2018-04-11T13:41:50.225Z,53.26
2018-04-11T13:44:18.502Z,47.46
2018-04-11T13:46:46.810Z,43.82
2018-04-11T13:49:15.081Z,48.94
2018-04-11T13:51:43.346Z,48.20
2018-04-11T13:54:11.642Z,48.50
2018-04-11T13:56:39.904Z,47.62
2018-04-11T13:59:08.189Z,44.36
2018-04-11T14:01:36.450Z,40.44
2018-04-11T14:04:04.770Z,45.16
2018-04-11T14:06:33.073Z,53.08
2018-04-11T14:09:02.654Z,39.74
2018-04-11T14:11:32.786Z,42.38
2018-04-11T14:14:02.736Z,38.80
2018-04-11T14:16:33.368Z,32.76
2018-04-11T14:19:01.654Z,33.48
2018-04-11T14:21:31.340Z,40.84
2018-04-11T14:24:00.742Z,45.70
2018-04-11T14:26:29.044Z,51.32
2018-04-11T14:28:57.378Z,52.20
2018-04-11T14:31:25.613Z,42.16
2018-04-11T14:33:53.915Z,48.16
2018-04-11T14:36:22.178Z,42.84
2018-04-11T14:38:50.478Z,40.52
2018-04-11T14:41:18.741Z,41.36
2018-04-11T14:43:47.006Z,51.34
2018-04-11T14:46:15.303Z,50.46
2018-04-11T14:48:43.570Z,50.50
2018-04-11T14:51:11.865Z,53.08
2018-04-11T14:53:43.709Z,52.00
2018-04-11T14:56:12.009Z,53.98
2018-04-11T14:58:40.282Z,59.42
2018-04-11T15:01:07.802Z,51.98
2018-04-11T15:03:36.989Z,48.90
2018-04-11T15:06:05.260Z,47.16
2018-04-11T15:08:34.453Z,46.44
2018-04-11T15:11:03.370Z,52.42
2018-04-11T15:13:33.676Z,47.80
2018-04-11T15:16:01.958Z,41.00
2018-04-11T15:18:31.150Z,47.22
2018-04-11T15:21:00.030Z,42.28
2018-04-11T15:23:28.325Z,42.56
2018-04-11T15:25:56.734Z,42.34
2018-04-11T15:28:25.950Z,40.70
2018-04-11T15:30:54.214Z,42.00
2018-04-11T15:33:29.632Z,49.26
2018-04-11T15:35:57.905Z,45.38
2018-04-11T15:38:26.198Z,45.96
2018-04-11T15:40:53.754Z,42.96
2018-04-11T15:43:22.028Z,44.46
2018-04-11T15:45:50.293Z,44.60
2018-04-11T15:48:18.598Z,51.44
2018-04-11T15:50:47.928Z,43.98
2018-04-11T15:53:16.133Z,46.88
2018-04-11T15:55:44.429Z,44.06
2018-04-11T15:58:12.709Z,45.48
2018-04-11T16:00:42.010Z,47.44
2018-04-11T16:03:10.314Z,48.28
2018-04-11T16:05:39.589Z,48.76
2018-04-11T16:08:07.849Z,47.98
2018-04-11T16:10:39.298Z,54.22
2018-04-11T16:13:07.576Z,45.60
2018-04-11T16:15:35.877Z,51.44
2018-04-11T16:18:04.714Z,53.22
2018-04-11T16:20:34.055Z,46.72
2018-04-11T16:23:02.353Z,41.52
2018-04-11T16:25:31.362Z,45.70
2018-04-11T16:28:00.269Z,49.68
2018-04-11T16:30:30.500Z,37.30
2018-04-11T16:32:58.772Z,34.20
2018-04-11T16:35:31.503Z,31.66
2018-04-11T16:38:00.819Z,32.50
2018-04-11T16:40:31.118Z,36.02
2018-04-11T16:43:00.076Z,34.60
2018-04-11T16:45:30.106Z,34.50
2018-04-11T16:47:58.417Z,33.92
2018-04-11T16:50:27.617Z,34.78
2018-04-11T16:52:55.926Z,27.32
2018-04-11T16:55:24.277Z,32.46
2018-04-11T16:57:52.541Z,27.88
2018-04-11T17:00:20.085Z,31.14
2018-04-11T17:02:48.422Z,25.90
2018-04-11T17:05:16.723Z,31.24
2018-04-11T17:07:45.050Z,27.06
2018-04-11T17:10:13.323Z,25.64
2018-04-11T17:12:41.597Z,30.24
2018-04-11T17:15:09.903Z,27.82
2018-04-11T17:17:38.178Z,30.26
2018-04-11T17:20:06.476Z,27.34
2018-04-11T17:22:47.359Z,26.14
2018-04-11T17:25:29.953Z,24.06
2018-04-11T17:28:09.301Z,22.76
2018-04-11T17:30:49.357Z,25.00
2018-04-11T17:33:17.665Z,27.38
2018-04-11T17:35:45.929Z,22.20
2018-04-11T17:38:14.210Z,25.66
2018-04-11T17:40:41.770Z,23.54
2018-04-11T17:43:10.056Z,25.48
2018-04-11T17:45:38.373Z,29.06
2018-04-11T17:48:06.632Z,37.92
2018-04-11T17:50:35.681Z,37.60
2018-04-11T17:53:04.789Z,42.02
2018-04-11T17:55:33.068Z,47.62
2018-04-11T17:58:01.993Z,44.42
2018-04-11T18:00:30.956Z,47.72
2018-04-11T18:03:00.204Z,42.90
2018-04-11T18:05:29.956Z,44.50
2018-04-11T18:07:58.263Z,47.40
2018-04-11T18:10:26.539Z,46.90
2018-04-11T18:12:54.882Z,44.82
2018-04-11T18:15:23.186Z,44.90
2018-04-11T18:17:51.498Z,47.60
2018-04-11T18:20:19.803Z,47.88
2018-04-11T18:22:48.093Z,47.82
2018-04-11T18:25:16.379Z,47.28
2018-04-11T18:27:44.695Z,48.20
2018-04-11T18:30:12.958Z,48.36
2018-04-11T18:32:41.274Z,49.02
2018-04-11T18:35:09.561Z,55.60
2018-04-11T18:37:37.862Z,47.74
2018-04-11T18:40:06.129Z,49.08
2018-04-11T18:42:34.428Z,53.46
2018-04-11T18:45:02.703Z,49.70
2018-04-11T18:47:32.065Z,45.94
2018-04-11T18:50:00.734Z,45.34
2018-04-11T18:52:29.038Z,47.48
2018-04-11T18:54:57.334Z,47.68
2018-04-11T18:57:25.632Z,42.30
2018-04-11T18:59:53.889Z,51.98
2018-04-11T19:02:22.205Z,60.84
2018-04-11T19:04:52.463Z,48.32
2018-04-11T19:07:20.813Z,47.32
2018-04-11T19:09:49.078Z,43.22
2018-04-11T19:12:17.884Z,47.26
2018-04-11T19:14:46.177Z,66.80
2018-04-11T19:17:14.457Z,52.30
2018-04-11T19:19:42.762Z,44.20
2018-04-11T19:22:11.073Z,52.58
2018-04-11T19:24:39.370Z,47.32
2018-04-11T19:27:07.311Z,53.12
2018-04-11T19:29:36.598Z,50.88
2018-04-11T19:32:04.926Z,47.28
2018-04-11T19:34:33.203Z,48.74
2018-04-11T19:37:01.477Z,50.70
2018-04-11T19:39:30.456Z,47.32
2018-04-11T19:41:58.733Z,45.50
2018-04-11T19:44:27.096Z,43.98
2018-04-11T19:46:55.342Z,47.52
2018-04-11T19:49:23.619Z,46.50
2018-04-11T19:51:51.925Z,45.02
2018-04-11T19:54:20.189Z,47.84
2018-04-11T19:56:47.754Z,45.50
2018-04-11T19:59:16.040Z,43.68
2018-04-11T20:01:44.301Z,49.48
2018-04-11T20:04:12.593Z,47.30
2018-04-11T20:06:41.813Z,42.22
2018-04-11T20:09:10.110Z,47.52
2018-04-11T20:11:38.384Z,43.36
2018-04-11T20:14:07.097Z,45.52
2018-04-11T20:16:35.920Z,50.06
2018-04-11T20:19:03.426Z,47.36
2018-04-11T20:21:31.726Z,47.80
2018-04-11T20:24:00.796Z,56.60
2018-04-11T20:26:29.090Z,50.52
2018-04-11T20:28:57.395Z,52.10
2018-04-11T20:31:25.676Z,34.32
2018-04-11T20:33:53.950Z,36.94
2018-04-11T20:36:22.264Z,37.80
2018-04-11T20:38:50.540Z,37.08
2018-04-11T20:41:18.804Z,39.32
2018-04-11T20:43:47.271Z,39.48
2018-04-11T20:46:15.624Z,44.60
2018-04-11T20:48:43.943Z,40.70
2018-04-11T20:51:12.205Z,42.64
2018-04-11T20:53:40.474Z,39.16
2018-04-11T20:56:08.000Z,44.56
2018-04-11T20:58:36.265Z,39.14
2018-04-11T21:01:04.609Z,40.32
2018-04-11T21:03:32.897Z,42.30
2018-04-11T21:06:00.460Z,49.10
2018-04-11T21:08:28.731Z,43.02
2018-04-11T21:10:57.000Z,41.18
2018-04-11T21:13:25.264Z,45.34
2018-04-11T21:15:54.503Z,42.02
2018-04-11T21:18:22.766Z,47.46
2018-04-11T21:20:51.047Z,48.74
2018-04-11T21:23:19.346Z,46.26
2018-04-11T21:25:47.654Z,44.02
2018-04-11T21:28:15.948Z,46.70
2018-04-11T21:30:44.240Z,44.20
2018-04-11T21:33:12.938Z,44.04
2018-04-11T21:35:41.223Z,38.86
2018-04-11T21:38:09.534Z,36.68
2018-04-11T21:40:37.829Z,34.30
2018-04-11T21:43:05.338Z,34.66
2018-04-11T21:45:33.637Z,37.10
2018-04-11T21:48:01.911Z,36.76
2018-04-11T21:50:30.163Z,29.90
2018-04-11T21:52:58.441Z,42.36
2018-04-11T21:55:26.743Z,36.90
2018-04-11T21:57:55.007Z,38.32
2018-04-11T22:00:23.301Z,43.20
2018-04-11T22:02:51.592Z,40.10
2018-04-11T22:05:19.857Z,38.98
2018-04-11T22:07:48.149Z,45.84
2018-04-11T22:10:16.424Z,33.66
2018-04-11T22:12:45.653Z,37.80
2018-04-11T22:15:13.932Z,33.54
2018-04-11T22:17:42.233Z,34.18
2018-04-11T22:20:10.497Z,35.28
2018-04-11T22:22:38.778Z,36.10
2018-04-11T22:25:07.046Z,32.18
2018-04-11T22:27:35.941Z,33.06
2018-04-11T22:30:04.237Z,33.38
2018-04-11T22:32:32.513Z,33.10
2018-04-11T22:35:02.026Z,29.44
2018-04-11T22:37:30.746Z,31.52
2018-04-11T22:39:58.260Z,31.10
2018-04-11T22:42:26.518Z,37.68
2018-04-11T22:44:54.839Z,31.28
2018-04-11T22:47:23.097Z,37.32
2018-04-11T22:49:51.362Z,33.18
2018-04-11T22:52:19.665Z,36.22
2018-04-11T22:54:47.957Z,30.64
2018-04-11T22:57:16.250Z,33.64
2018-04-11T22:59:44.533Z,33.30
2018-04-11T23:02:12.833Z,35.36
2018-04-11T23:04:41.105Z,31.48
2018-04-11T23:07:09.410Z,36.74
2018-04-11T23:09:36.958Z,33.38
2018-04-11T23:12:06.403Z,38.60
2018-04-11T23:14:35.223Z,43.40
2018-04-11T23:17:03.517Z,36.34
2018-04-11T23:19:31.823Z,43.64
2018-04-11T23:22:01.376Z,38.46
2018-04-11T23:24:30.724Z,38.10
2018-04-11T23:26:58.987Z,34.34
2018-04-11T23:29:27.295Z,37.82
2018-04-11T23:31:55.550Z,40.42
2018-04-11T23:34:23.815Z,44.24
2018-04-11T23:36:52.105Z,43.26
2018-04-11T23:39:20.382Z,43.56
2018-04-11T23:41:48.686Z,43.54
2018-04-11T23:44:16.961Z,53.82
2018-04-11T23:46:45.299Z,46.72
2018-04-11T23:49:21.874Z,46.86
2018-04-11T23:51:50.169Z,51.36
2018-04-11T23:54:18.424Z,49.30
2018-04-11T23:56:46.719Z,47.16
2018-04-11T23:59:14.245Z,47.98
